Time;durP1;ratioP1;P1;durP2;ratioP2;P2;SDS_P1;SDS_P2;PMS_P1;PMS_P2;Temp;Humidity;BMP_temperature;BMP_pressure;BME280_temperature;BME280_humidity;BME280_pressure;Samples;Min_cycle;Max_cycle;Signal;HPM_P1;HPM_P2
2022/01/22 00:00:00;;;;;;;8.67;3.43;;;;;;;;;;5055027;28;20020;-69
2022/01/22 00:02:27;;;;;;;8.57;3.40;;;;;;;;;;5054854;28;20036;-68
2022/01/22 00:04:54;;;;;;;4.60;3.10;;;;;;;;;;5072944;28;20056;-69
2022/01/22 00:07:26;;;;;;;7.33;2.97;;;;;;;;;;5069831;28;20495;-69
2022/01/22 00:09:59;;;;;;;10.50;3.67;;;;;;;;;;5069752;28;20040;-69
2022/01/22 00:12:55;;;;;;;6.27;3.10;;;;;;;;;;5069669;28;20039;-69
2022/01/22 00:15:25;;;;;;;5.10;2.90;;;;;;;;;;5050984;28;20035;-68
2022/01/22 00:17:53;;;;;;;6.57;3.20;;;;;;;;;;5054417;28;20375;-69
2022/01/22 00:20:25;;;;;;;8.43;3.13;;;;;;;;;;5054769;28;20037;-68
2022/01/22 00:22:55;;;;;;;7.67;3.00;;;;;;;;;;5070337;28;20029;-68
2022/01/22 00:25:23;;;;;;;10.60;3.23;;;;;;;;;;5074675;28;20560;-68
2022/01/22 00:27:52;;;;;;;5.07;3.10;;;;;;;;;;5070355;28;20028;-69
2022/01/22 00:30:22;;;;;;;6.37;2.87;;;;;;;;;;5068307;28;20814;-68
2022/01/22 00:32:51;;;;;;;6.73;3.33;;;;;;;;;;5049409;28;20069;-68
2022/01/22 00:35:20;;;;;;;9.77;3.30;;;;;;;;;;5048799;28;20017;-68
2022/01/22 00:37:49;;;;;;;6.63;3.07;;;;;;;;;;5051634;28;20024;-68
2022/01/22 00:40:18;;;;;;;6.60;3.43;;;;;;;;;;5068357;28;20040;-68
2022/01/22 00:42:46;;;;;;;5.67;3.23;;;;;;;;;;5093825;28;20050;-68
2022/01/22 00:45:15;;;;;;;5.37;3.30;;;;;;;;;;5075109;28;20021;-68
2022/01/22 00:47:45;;;;;;;5.07;3.53;;;;;;;;;;5053993;28;20063;-68
2022/01/22 00:50:17;;;;;;;4.73;3.07;;;;;;;;;;5051717;28;20051;-68
2022/01/22 00:52:45;;;;;;;4.83;3.10;;;;;;;;;;5048876;28;20025;-68
2022/01/22 00:55:13;;;;;;;4.83;3.60;;;;;;;;;;5048764;28;20021;-69
2022/01/22 00:57:42;;;;;;;5.33;3.40;;;;;;;;;;5065854;28;20082;-68
2022/01/22 01:00:12;;;;;;;5.70;3.43;;;;;;;;;;5070613;28;20052;-68
2022/01/22 01:02:41;;;;;;;6.73;2.80;;;;;;;;;;5073826;28;20040;-68
2022/01/22 01:05:11;;;;;;;6.63;3.13;;;;;;;;;;5073766;28;20113;-68
2022/01/22 01:07:38;;;;;;;7.70;3.20;;;;;;;;;;5073343;28;20025;-68
2022/01/22 01:10:09;;;;;;;6.43;2.90;;;;;;;;;;5073433;28;20025;-68
2022/01/22 01:12:39;;;;;;;7.60;3.37;;;;;;;;;;5071250;28;20024;-68
2022/01/22 01:15:17;;;;;;;4.50;2.70;;;;;;;;;;5068427;28;20028;-68
2022/01/22 01:34:13;;;;;;;4.77;2.70;;;;;;;;;;5056444;28;20072;-68
2022/01/22 01:36:40;;;;;;;11.33;3.93;;;;;;;;;;5048225;28;20043;-68
2022/01/22 01:39:11;;;;;;;3.30;2.37;;;;;;;;;;5048230;28;20025;-68
2022/01/22 01:41:52;;;;;;;4.40;2.73;;;;;;;;;;5048121;28;20032;-68
2022/01/22 01:44:19;;;;;;;4.67;2.27;;;;;;;;;;5048858;28;20144;-68
2022/01/22 01:46:50;;;;;;;4.33;2.70;;;;;;;;;;5051636;28;20021;-67
2022/01/22 01:49:18;;;;;;;6.07;2.80;;;;;;;;;;5052970;28;20074;-68
2022/01/22 01:51:45;;;;;;;4.27;2.43;;;;;;;;;;5052612;28;20036;-68
2022/01/22 01:54:31;;;;;;;5.77;2.90;;;;;;;;;;5052965;28;20086;-68
2022/01/22 01:59:46;;;;;;;5.77;2.77;;;;;;;;;;5047730;28;20099;-68
2022/01/22 02:02:15;;;;;;;5.33;2.00;;;;;;;;;;5047638;28;20055;-68
2022/01/22 02:04:42;;;;;;;3.87;2.40;;;;;;;;;;5047636;28;20403;-68
2022/01/22 02:07:10;;;;;;;3.47;2.00;;;;;;;;;;5049732;28;20504;-68
2022/01/22 02:09:38;;;;;;;3.17;2.07;;;;;;;;;;5052603;28;20489;-67
2022/01/22 02:12:12;;;;;;;3.37;1.70;;;;;;;;;;5052543;28;20463;-67
2022/01/22 02:25:29;;;;;;;3.00;2.00;;;;;;;;;;5087894;28;20073;-68
2022/01/22 02:27:56;;;;;;;4.80;2.60;;;;;;;;;;5087553;28;20099;-67
2022/01/22 02:30:28;;;;;;;3.17;2.07;;;;;;;;;;5091377;28;20389;-67
2022/01/22 02:38:17;;;;;;;5.63;2.43;;;;;;;;;;5052060;28;20033;-67
2022/01/22 02:40:47;;;;;;;6.00;2.60;;;;;;;;;;5051976;28;20049;-68
2022/01/22 02:43:15;;;;;;;4.33;2.60;;;;;;;;;;5046996;28;20025;-68
2022/01/22 02:45:44;;;;;;;4.60;2.10;;;;;;;;;;5047079;28;20096;-67
2022/01/22 02:48:11;;;;;;;4.80;2.20;;;;;;;;;;5047048;28;20579;-68
2022/01/22 02:50:37;;;;;;;4.20;2.70;;;;;;;;;;5047156;28;20029;-67
2022/01/22 02:53:05;;;;;;;8.63;3.03;;;;;;;;;;5052048;28;20095;-67
2022/01/22 02:55:33;;;;;;;4.80;2.73;;;;;;;;;;5052078;28;20056;-67
2022/01/22 02:58:00;;;;;;;5.57;2.77;;;;;;;;;;5054681;28;20028;-68
2022/01/22 03:00:27;;;;;;;4.70;2.50;;;;;;;;;;5038302;28;20478;-67
2022/01/22 03:02:55;;;;;;;8.37;3.00;;;;;;;;;;5055866;28;20709;-67
2022/01/22 03:05:22;;;;;;;6.97;3.17;;;;;;;;;;5050946;28;20028;-67
2022/01/22 03:07:53;;;;;;;9.00;3.10;;;;;;;;;;5050938;28;20021;-67
2022/01/22 03:10:23;;;;;;;6.47;3.20;;;;;;;;;;5062566;28;20036;-65
2022/01/22 03:15:38;;;;;;;5.33;2.47;;;;;;;;;;5066168;28;20196;-66
2022/01/22 03:18:59;;;;;;;4.10;2.53;;;;;;;;;;5074357;28;20103;-65
2022/01/22 03:21:07;;;;;;;6.63;2.70;;;;;;;;;;5056026;28;20029;-65
2022/01/22 03:29:09;;;;;;;;;;;;;;;;;;5051011;28;20632;-65
2022/01/22 03:31:38;;;;;;;5.33;2.80;;;;;;;;;;5050502;28;19940;-65
2022/01/22 03:34:05;;;;;;;7.77;3.13;;;;;;;;;;5066910;28;20459;-67
2022/01/22 03:36:33;;;;;;;5.80;3.30;;;;;;;;;;5073048;28;20025;-61
2022/01/22 03:39:02;;;;;;;10.10;3.40;;;;;;;;;;5074907;28;20020;-66
2022/01/22 03:41:29;;;;;;;7.43;3.40;;;;;;;;;;5075071;28;20117;-67
2022/01/22 03:43:56;;;;;;;5.77;3.20;;;;;;;;;;5075199;28;20074;-65
2022/01/22 03:46:23;;;;;;;4.70;3.00;;;;;;;;;;5060898;28;20029;-66
2022/01/22 03:48:51;;;;;;;7.13;3.80;;;;;;;;;;5051861;28;20364;-66
2022/01/22 03:51:18;;;;;;;4.77;2.97;;;;;;;;;;5049904;28;20447;-66
2022/01/22 03:53:45;;;;;;;5.67;2.87;;;;;;;;;;5049861;28;20041;-66
2022/01/22 03:56:12;;;;;;;4.27;2.77;;;;;;;;;;5049748;28;20435;-66
2022/01/22 03:58:41;;;;;;;6.40;2.93;;;;;;;;;;5053237;28;20040;-65
2022/01/22 04:04:09;;;;;;;14.93;3.43;;;;;;;;;;5054462;28;20091;-65
2022/01/22 04:09:07;;;;;;;4.40;2.53;;;;;;;;;;5056325;28;20037;-67
2022/01/22 04:11:38;;;;;;;4.53;2.93;;;;;;;;;;5066263;28;20032;-65
2022/01/22 04:14:11;;;;;;;5.33;2.93;;;;;;;;;;5068844;28;20035;-66
2022/01/22 04:16:46;;;;;;;7.00;3.00;;;;;;;;;;5049320;28;20537;-65
2022/01/22 04:24:52;;;;;;;6.15;2.83;;;;;;;;;;5074027;28;20178;-65
2022/01/22 04:27:27;;;;;;;6.35;3.35;;;;;;;;;;5073835;28;20024;-65
2022/01/22 04:29:58;;;;;;;5.88;3.30;;;;;;;;;;5073916;28;20039;-67
2022/01/22 04:32:26;;;;;;;6.40;3.20;;;;;;;;;;5055301;28;20048;-65
2022/01/22 04:34:54;;;;;;;5.50;3.33;;;;;;;;;;5049102;28;20025;-65
2022/01/22 04:37:21;;;;;;;4.87;2.70;;;;;;;;;;5049053;28;20128;-65
2022/01/22 04:39:49;;;;;;;6.47;3.60;;;;;;;;;;5048752;28;20036;-66
2022/01/22 04:42:16;;;;;;;7.07;2.93;;;;;;;;;;5049794;28;20060;-65
2022/01/22 04:55:36;;;;;;;7.27;3.30;;;;;;;;;;5050313;28;20037;-65
2022/01/22 04:58:04;;;;;;;4.17;2.57;;;;;;;;;;5050372;28;20035;-64
2022/01/22 05:00:35;;;;;;;6.73;3.23;;;;;;;;;;5068380;28;20502;-66
2022/01/22 05:03:02;;;;;;;6.77;3.20;;;;;;;;;;5068648;28;20460;-65
2022/01/22 05:05:30;;;;;;;4.23;2.37;;;;;;;;;;5070825;28;20498;-65
2022/01/22 05:07:59;;;;;;;6.50;3.63;;;;;;;;;;5073609;28;20056;-65
2022/01/22 05:10:27;;;;;;;9.03;3.90;;;;;;;;;;5059717;28;20426;-64
2022/01/22 05:12:54;;;;;;;7.77;4.33;;;;;;;;;;5053262;28;20380;-64
2022/01/22 05:15:22;;;;;;;6.70;3.40;;;;;;;;;;5053295;28;20032;-65
2022/01/22 05:17:49;;;;;;;7.63;3.33;;;;;;;;;;5049954;28;20061;-64
2022/01/22 05:22:54;;;;;;;5.40;3.03;;;;;;;;;;5049575;28;20032;-64
2022/01/22 05:25:28;;;;;;;6.33;3.77;;;;;;;;;;5067786;28;20039;-65
2022/01/22 05:31:03;;;;;;;5.07;2.83;;;;;;;;;;5023687;28;20052;-64
2022/01/22 05:39:01;;;;;;;5.68;2.85;;;;;;;;;;5071608;28;20110;-65
2022/01/22 05:41:29;;;;;;;5.10;2.43;;;;;;;;;;5067392;28;20032;-65
2022/01/22 05:43:56;;;;;;;4.63;2.80;;;;;;;;;;5067499;28;20089;-64
2022/01/22 05:46:23;;;;;;;4.40;2.33;;;;;;;;;;5047242;28;20021;-64
2022/01/22 05:48:50;;;;;;;5.53;3.03;;;;;;;;;;5054237;28;20044;-64
2022/01/22 05:51:18;;;;;;;5.60;2.73;;;;;;;;;;5072319;28;20090;-64
2022/01/22 06:01:43;;;;;;;6.32;3.08;;;;;;;;;;5070025;28;20131;-64
2022/01/22 06:04:11;;;;;;;4.07;2.53;;;;;;;;;;5066750;28;20025;-65
2022/01/22 06:06:38;;;;;;;5.43;3.40;;;;;;;;;;5047511;28;20021;-64
2022/01/22 06:09:09;;;;;;;7.80;4.80;;;;;;;;;;5047137;28;20116;-65
2022/01/22 06:11:54;;;;;;;13.77;4.50;;;;;;;;;;5052339;28;20044;-64
2022/01/22 06:14:22;;;;;;;12.80;4.90;;;;;;;;;;5054411;28;20115;-64
2022/01/22 06:16:49;;;;;;;6.13;3.87;;;;;;;;;;5072217;28;20367;-64
2022/01/22 06:19:17;;;;;;;5.83;3.37;;;;;;;;;;5071526;28;20706;-66
2022/01/22 06:21:44;;;;;;;5.60;3.43;;;;;;;;;;5072471;28;20712;-64
2022/01/22 06:24:12;;;;;;;5.03;3.00;;;;;;;;;;5069216;28;20277;-64
2022/01/22 06:26:40;;;;;;;5.30;3.40;;;;;;;;;;5051017;28;20274;-65
2022/01/22 06:29:09;;;;;;;6.50;2.77;;;;;;;;;;5063080;28;20268;-66
2022/01/22 06:31:37;;;;;;;8.43;3.57;;;;;;;;;;5046465;28;20290;-64
2022/01/22 06:34:09;;;;;;;5.10;3.13;;;;;;;;;;5048541;28;20274;-65
2022/01/22 06:36:37;;;;;;;7.10;3.30;;;;;;;;;;5051972;28;20270;-64
2022/01/22 06:39:18;;;;;;;5.53;2.77;;;;;;;;;;5058864;28;20632;-64
2022/01/22 06:41:50;;;;;;;6.57;2.77;;;;;;;;;;5071901;28;20257;-64
2022/01/22 06:44:24;;;;;;;7.47;3.47;;;;;;;;;;5069905;28;20262;-65
2022/01/22 06:46:55;;;;;;;5.03;2.80;;;;;;;;;;5050844;28;20265;-64
2022/01/22 06:49:28;;;;;;;6.20;2.80;;;;;;;;;;5046716;28;20265;-64
2022/01/22 06:51:58;;;;;;;5.03;2.80;;;;;;;;;;5046861;28;20298;-64
2022/01/22 06:54:25;;;;;;;6.93;3.40;;;;;;;;;;5052526;28;20281;-64
2022/01/22 06:56:52;;;;;;;4.83;2.43;;;;;;;;;;5054999;28;20694;-64
2022/01/22 06:59:20;;;;;;;6.23;3.43;;;;;;;;;;5068837;28;20322;-64
2022/01/22 07:01:49;;;;;;;5.97;2.80;;;;;;;;;;5071459;28;20326;-65
2022/01/22 07:04:17;;;;;;;7.40;3.03;;;;;;;;;;5071541;28;20262;-64
2022/01/22 07:06:45;;;;;;;5.63;2.93;;;;;;;;;;5071107;28;20281;-64
2022/01/22 07:09:13;;;;;;;4.47;2.47;;;;;;;;;;5055488;28;20274;-64
2022/01/22 07:11:41;;;;;;;6.50;2.93;;;;;;;;;;5057265;28;20281;-64
2022/01/22 07:14:10;;;;;;;5.47;3.50;;;;;;;;;;5066429;28;20269;-64
2022/01/22 07:16:38;;;;;;;4.90;2.90;;;;;;;;;;5054946;28;20285;-64
2022/01/22 07:19:05;;;;;;;3.87;2.20;;;;;;;;;;5050033;28;20628;-64
2022/01/22 07:21:32;;;;;;;4.50;2.53;;;;;;;;;;5051470;28;20270;-64
2022/01/22 07:26:31;;;;;;;9.57;3.20;;;;;;;;;;5060748;28;20309;-64
2022/01/22 07:28:58;;;;;;;5.03;3.37;;;;;;;;;;5056737;28;20266;-64
2022/01/22 07:31:26;;;;;;;6.87;3.63;;;;;;;;;;5063842;28;20686;-64
2022/01/22 07:33:53;;;;;;;7.37;3.23;;;;;;;;;;5066558;28;20293;-64
2022/01/22 07:36:20;;;;;;;5.63;2.80;;;;;;;;;;5065955;28;20291;-64
2022/01/22 07:38:47;;;;;;;6.47;3.30;;;;;;;;;;5066155;28;20269;-65
2022/01/22 07:41:14;;;;;;;11.33;4.70;;;;;;;;;;5051323;28;20619;-64
2022/01/22 07:43:40;;;;;;;6.67;3.20;;;;;;;;;;5073219;28;20719;-64
2022/01/22 07:46:08;;;;;;;4.07;2.87;;;;;;;;;;5062821;28;20269;-64
2022/01/22 07:48:35;;;;;;;5.93;3.60;;;;;;;;;;5055081;28;20266;-65
2022/01/22 07:51:02;;;;;;;6.00;2.50;;;;;;;;;;5054675;28;20296;-64
2022/01/22 07:53:29;;;;;;;7.03;3.30;;;;;;;;;;5051209;28;20744;-64
2022/01/22 07:55:56;;;;;;;6.23;3.30;;;;;;;;;;5059658;28;20372;-64
2022/01/22 07:58:23;;;;;;;4.97;3.03;;;;;;;;;;5055739;28;20270;-64
2022/01/22 08:00:50;;;;;;;5.23;3.53;;;;;;;;;;5050885;28;20300;-64
2022/01/22 08:03:18;;;;;;;6.60;2.83;;;;;;;;;;5052816;28;20254;-64
2022/01/22 08:05:44;;;;;;;6.43;3.53;;;;;;;;;;5054544;28;20274;-64
2022/01/22 08:08:11;;;;;;;5.67;3.33;;;;;;;;;;5054860;28;20258;-64
2022/01/22 08:10:38;;;;;;;9.00;4.43;;;;;;;;;;5060892;28;20288;-64
2022/01/22 08:13:04;;;;;;;9.17;3.97;;;;;;;;;;5074262;28;20322;-64
2022/01/22 08:15:32;;;;;;;7.47;3.27;;;;;;;;;;5069215;28;20355;-63
2022/01/22 08:18:00;;;;;;;6.10;3.33;;;;;;;;;;5049552;28;20266;-64
2022/01/22 08:20:28;;;;;;;7.43;4.10;;;;;;;;;;5049378;28;20266;-65
2022/01/22 08:22:55;;;;;;;6.43;3.33;;;;;;;;;;5049388;28;20274;-64
2022/01/22 08:25:22;;;;;;;5.17;2.53;;;;;;;;;;5051782;28;20637;-65
2022/01/22 08:30:28;;;;;;;4.93;3.60;;;;;;;;;;5067833;28;20282;-64
2022/01/22 08:33:07;;;;;;;9.77;4.50;;;;;;;;;;5054111;28;20728;-64
2022/01/22 08:35:53;;;;;;;6.57;3.17;;;;;;;;;;5055066;28;20740;-64
2022/01/22 08:38:19;;;;;;;;;;;;;;;;;;5049879;28;20312;-64
2022/01/22 08:40:46;;;;;;;4.23;2.03;;;;;;;;;;5049044;28;19909;-64
2022/01/22 08:43:13;;;;;;;5.20;2.50;;;;;;;;;;5049101;28;20277;-64
2022/01/22 08:45:40;;;;;;;6.60;2.70;;;;;;;;;;5048685;28;20269;-64
2022/01/22 08:48:08;;;;;;;5.17;2.67;;;;;;;;;;5052515;28;20266;-64
2022/01/22 08:50:35;;;;;;;5.37;3.70;;;;;;;;;;5053770;28;20294;-64
2022/01/22 08:53:03;;;;;;;7.00;3.53;;;;;;;;;;5053714;28;20320;-64
2022/01/22 08:55:30;;;;;;;5.87;3.57;;;;;;;;;;5053246;28;20762;-64
2022/01/22 08:57:58;;;;;;;7.80;3.00;;;;;;;;;;5053695;28;20311;-64
2022/01/22 09:00:25;;;;;;;4.63;2.93;;;;;;;;;;5051077;28;20304;-64
2022/01/22 09:02:52;;;;;;;5.40;3.10;;;;;;;;;;5048509;28;20266;-65
2022/01/22 09:05:20;;;;;;;5.90;3.30;;;;;;;;;;5048484;28;20752;-64
2022/01/22 09:07:47;;;;;;;5.70;3.47;;;;;;;;;;5049608;28;20341;-64
2022/01/22 09:10:14;;;;;;;8.20;3.00;;;;;;;;;;5068362;28;20280;-64
2022/01/22 09:12:42;;;;;;;5.83;2.67;;;;;;;;;;5073135;28;20272;-64
2022/01/22 09:15:09;;;;;;;5.33;2.67;;;;;;;;;;5069976;28;20268;-64
2022/01/22 09:17:37;;;;;;;6.23;2.77;;;;;;;;;;5053983;28;20277;-66
2022/01/22 09:20:09;;;;;;;5.70;3.67;;;;;;;;;;5053198;28;20767;-64
2022/01/22 09:22:37;;;;;;;5.90;3.77;;;;;;;;;;5048779;28;20286;-64
2022/01/22 09:25:04;;;;;;;8.53;3.27;;;;;;;;;;5048104;28;20273;-64
2022/01/22 09:27:31;;;;;;;4.67;2.87;;;;;;;;;;5047821;28;20403;-64
2022/01/22 09:29:58;;;;;;;4.30;2.77;;;;;;;;;;5048962;28;20266;-64
2022/01/22 09:32:26;;;;;;;5.77;3.27;;;;;;;;;;5061764;28;20368;-64
2022/01/22 09:34:53;;;;;;;7.87;3.73;;;;;;;;;;5072801;28;20657;-63
2022/01/22 09:37:20;;;;;;;5.27;2.87;;;;;;;;;;5072962;28;20295;-64
2022/01/22 09:39:48;;;;;;;6.20;3.13;;;;;;;;;;5056135;28;20277;-63
2022/01/22 09:42:17;;;;;;;8.67;3.23;;;;;;;;;;5063988;28;20703;-63
2022/01/22 09:44:45;;;;;;;6.37;3.17;;;;;;;;;;5048112;28;20265;-64
2022/01/22 09:47:15;;;;;;;7.50;2.80;;;;;;;;;;5060053;28;20257;-63
2022/01/22 09:49:43;;;;;;;6.33;3.60;;;;;;;;;;5067792;28;20253;-64
2022/01/22 09:52:11;;;;;;;5.77;2.60;;;;;;;;;;5067715;28;20635;-63
2022/01/22 09:54:38;;;;;;;7.67;2.83;;;;;;;;;;5071581;28;20262;-63
2022/01/22 09:57:06;;;;;;;5.67;3.10;;;;;;;;;;5072807;28;20639;-63
2022/01/22 09:59:33;;;;;;;6.90;3.00;;;;;;;;;;5058227;28;20270;-65
2022/01/22 10:02:14;;;;;;;7.10;3.70;;;;;;;;;;5052799;28;20258;-63
2022/01/22 10:04:45;;;;;;;4.93;3.00;;;;;;;;;;5052651;28;20258;-64
2022/01/22 10:07:21;;;;;;;6.30;2.87;;;;;;;;;;5046531;28;20254;-63
2022/01/22 10:10:05;;;;;;;4.83;3.30;;;;;;;;;;5047333;28;20273;-65
2022/01/22 10:12:44;;;;;;;7.30;3.70;;;;;;;;;;5047286;28;20274;-63
2022/01/22 10:15:13;;;;;;;6.33;3.20;;;;;;;;;;5047921;28;20025;-64
2022/01/22 10:17:53;;;;;;;10.00;3.23;;;;;;;;;;5060061;28;20319;-64
2022/01/22 10:20:29;;;;;;;5.90;3.70;;;;;;;;;;5071992;28;20379;-63
2022/01/22 10:23:19;;;;;;;5.97;2.97;;;;;;;;;;5072474;28;20265;-63
2022/01/22 10:25:57;;;;;;;6.10;3.50;;;;;;;;;;5056572;28;20306;-64
2022/01/22 10:28:27;;;;;;;6.30;3.20;;;;;;;;;;5059289;28;20602;-63
2022/01/22 10:30:57;;;;;;;5.03;2.93;;;;;;;;;;5053230;28;20772;-63
2022/01/22 10:33:36;;;;;;;5.37;2.90;;;;;;;;;;5066848;28;20273;-64
2022/01/22 10:36:09;;;;;;;6.77;3.77;;;;;;;;;;5055312;28;20628;-64
2022/01/22 10:38:46;;;;;;;7.40;3.20;;;;;;;;;;5070278;28;20253;-63
2022/01/22 10:41:15;;;;;;;5.80;2.87;;;;;;;;;;5071438;28;20320;-64
2022/01/22 10:43:51;;;;;;;6.17;3.83;;;;;;;;;;5072160;28;20809;-64
2022/01/22 10:46:20;;;;;;;5.33;3.00;;;;;;;;;;5064668;28;20272;-63
2022/01/22 10:49:04;;;;;;;4.83;2.50;;;;;;;;;;5071710;28;20323;-63
2022/01/22 10:51:31;;;;;;;5.13;3.17;;;;;;;;;;5066620;28;20295;-63
2022/01/22 10:54:00;;;;;;;7.87;3.23;;;;;;;;;;5060581;28;20266;-64
2022/01/22 10:56:29;;;;;;;5.77;3.20;;;;;;;;;;5046908;28;20261;-64
2022/01/22 10:59:00;;;;;;;6.80;3.83;;;;;;;;;;5046938;28;20261;-61
2022/01/22 11:01:29;;;;;;;7.87;2.83;;;;;;;;;;5051573;28;20671;-63
2022/01/22 11:04:10;;;;;;;8.00;3.50;;;;;;;;;;5052211;28;20616;-63
2022/01/22 11:06:38;;;;;;;5.07;3.20;;;;;;;;;;5054261;28;20253;-63
2022/01/22 11:09:07;;;;;;;5.33;3.50;;;;;;;;;;5062631;28;20273;-63
2022/01/22 11:11:37;;;;;;;6.00;3.63;;;;;;;;;;5070775;28;20285;-63
2022/01/22 11:14:10;;;;;;;6.63;3.57;;;;;;;;;;5066865;28;20254;-63
2022/01/22 11:16:38;;;;;;;6.77;3.70;;;;;;;;;;5066286;28;20269;-63
2022/01/22 11:19:06;;;;;;;5.30;3.00;;;;;;;;;;5068645;28;20279;-63
2022/01/22 11:21:33;;;;;;;5.77;3.50;;;;;;;;;;5070500;28;20771;-63
2022/01/22 11:24:00;;;;;;;20.00;5.80;;;;;;;;;;5070006;28;20652;-63
2022/01/22 11:26:28;;;;;;;8.70;4.87;;;;;;;;;;5055424;28;20284;-64
2022/01/22 11:28:55;;;;;;;6.47;3.70;;;;;;;;;;5055264;28;20286;-63
2022/01/22 11:31:24;;;;;;;10.47;4.57;;;;;;;;;;5055096;28;20294;-64
2022/01/22 11:33:53;;;;;;;9.03;4.70;;;;;;;;;;5054646;28;20297;-63
2022/01/22 11:36:28;;;;;;;10.17;5.17;;;;;;;;;;5051362;28;20335;-63
2022/01/22 11:38:55;;;;;;;;;;;;;;;;;;5070351;28;20265;-63
2022/01/22 11:41:23;;;;;;;8.30;3.67;;;;;;;;;;5069884;28;19919;-63
2022/01/22 11:44:15;;;;;;;28.23;10.50;;;;;;;;;;5070634;28;20322;-64
2022/01/22 11:46:46;;;;;;;11.07;6.13;;;;;;;;;;5070314;28;20281;-63
2022/01/22 11:49:17;;;;;;;12.17;6.10;;;;;;;;;;5075129;28;20331;-63
2022/01/22 11:51:45;;;;;;;10.97;5.10;;;;;;;;;;5074619;28;20292;-63
2022/01/22 11:54:12;;;;;;;10.83;4.20;;;;;;;;;;5063684;28;20261;-63
2022/01/22 11:56:45;;;;;;;9.50;5.10;;;;;;;;;;5072235;28;20266;-64
2022/01/22 11:59:19;;;;;;;12.27;5.67;;;;;;;;;;5053370;28;20274;-63
2022/01/22 12:01:56;;;;;;;11.40;5.22;;;;;;;;;;5049610;28;20266;-63
2022/01/22 12:04:50;;;;;;;11.73;6.23;;;;;;;;;;5049591;28;20174;-63
2022/01/22 12:07:21;;;;;;;11.53;4.37;;;;;;;;;;5049303;28;20331;-64
2022/01/22 12:10:04;;;;;;;15.93;7.93;;;;;;;;;;5070690;28;20360;-64
2022/01/22 12:15:45;;;;;;;20.87;10.27;;;;;;;;;;5064439;28;20274;-63
2022/01/22 12:18:15;;;;;;;16.00;6.73;;;;;;;;;;5041560;28;20289;-63
2022/01/22 12:23:16;;;;;;;20.57;8.27;;;;;;;;;;5069600;28;20258;-63
2022/01/22 12:25:44;;;;;;;14.33;6.37;;;;;;;;;;5069593;28;20661;-63
2022/01/22 12:28:11;;;;;;;17.83;7.83;;;;;;;;;;5069652;28;20265;-63
2022/01/22 12:30:42;;;;;;;14.23;6.70;;;;;;;;;;5073114;28;20289;-63
2022/01/22 12:33:13;;;;;;;14.70;7.67;;;;;;;;;;5059168;28;20289;-63
2022/01/22 12:35:47;;;;;;;13.33;6.80;;;;;;;;;;5053934;28;20262;-63
2022/01/22 12:38:37;;;;;;;10.50;5.57;;;;;;;;;;5060199;28;20279;-64
2022/01/22 12:41:57;;;;;;;10.27;5.63;;;;;;;;;;5057950;28;20274;-62
2022/01/22 12:44:11;;;;;;;10.20;4.80;;;;;;;;;;5040516;28;20273;-64
2022/01/22 12:46:39;;;;;;;9.20;4.80;;;;;;;;;;5048579;28;20332;-64
2022/01/22 12:49:08;;;;;;;10.17;5.20;;;;;;;;;;5049043;28;20258;-61
2022/01/22 12:51:37;;;;;;;11.47;5.53;;;;;;;;;;5051931;28;20298;-64
2022/01/22 12:54:06;;;;;;;9.40;4.80;;;;;;;;;;5058585;28;20273;-64
2022/01/22 12:56:57;;;;;;;11.07;5.70;;;;;;;;;;5073736;28;20260;-63
2022/01/22 12:59:32;;;;;;;12.13;5.27;;;;;;;;;;5073060;28;20315;-63
2022/01/22 13:02:00;;;;;;;9.17;4.67;;;;;;;;;;5067834;28;20744;-63
2022/01/22 13:04:28;;;;;;;8.50;4.47;;;;;;;;;;5048671;28;20344;-64
2022/01/22 13:06:55;;;;;;;10.73;4.97;;;;;;;;;;5048472;28;20347;-63
2022/01/22 13:09:26;;;;;;;12.70;5.37;;;;;;;;;;5049453;28;20737;-63
2022/01/22 13:11:57;;;;;;;11.30;5.80;;;;;;;;;;5065061;28;20655;-63
2022/01/22 13:14:30;;;;;;;9.30;4.50;;;;;;;;;;5072730;28;20275;-63
2022/01/22 13:16:57;;;;;;;9.60;4.70;;;;;;;;;;5073062;28;20280;-63
2022/01/22 13:19:29;;;;;;;8.70;4.50;;;;;;;;;;5073413;28;20264;-63
2022/01/22 13:22:00;;;;;;;7.63;4.27;;;;;;;;;;5064692;28;20406;-63
2022/01/22 13:24:29;;;;;;;9.77;4.80;;;;;;;;;;5052877;28;20747;-63
2022/01/22 13:29:31;;;;;;;11.37;4.57;;;;;;;;;;5064247;28;20351;-63
2022/01/22 13:32:01;;;;;;;5.93;3.87;;;;;;;;;;5047923;28;20289;-63
2022/01/22 13:34:48;;;;;;;8.47;5.17;;;;;;;;;;5048417;28;20262;-63
2022/01/22 13:40:24;;;;;;;7.23;4.50;;;;;;;;;;5026911;28;20723;-63
2022/01/22 13:48:29;;;;;;;6.43;3.70;;;;;;;;;;5048506;28;20037;-63
2022/01/22 13:50:57;;;;;;;7.13;4.40;;;;;;;;;;5047632;28;20628;-63
2022/01/22 13:53:25;;;;;;;7.33;4.27;;;;;;;;;;5047795;28;20617;-63
2022/01/22 13:56:11;;;;;;;11.17;4.13;;;;;;;;;;5047762;28;20262;-63
2022/01/22 13:58:40;;;;;;;9.87;4.20;;;;;;;;;;5051849;28;20268;-63
2022/01/22 14:01:28;;;;;;;7.70;4.20;;;;;;;;;;5069142;28;20757;-65
2022/01/22 14:04:08;;;;;;;8.07;3.67;;;;;;;;;;5072170;28;20613;-63
2022/01/22 14:06:36;;;;;;;21.73;7.83;;;;;;;;;;5071776;28;20731;-63
2022/01/22 14:09:13;;;;;;;8.57;4.70;;;;;;;;;;5071424;28;20498;-63
2022/01/22 14:11:58;;;;;;;9.73;4.70;;;;;;;;;;5055470;28;20289;-63
2022/01/22 14:14:30;;;;;;;7.35;4.43;;;;;;;;;;5059467;28;20353;-63
2022/01/22 14:17:13;;;;;;;18.30;8.03;;;;;;;;;;5049964;28;20024;-63
2022/01/22 14:19:44;;;;;;;9.70;4.73;;;;;;;;;;5049512;28;20327;-63
2022/01/22 14:22:11;;;;;;;6.67;3.57;;;;;;;;;;5052202;28;20612;-63
2022/01/22 14:24:39;;;;;;;23.27;7.57;;;;;;;;;;5052051;28;20254;-64
2022/01/22 14:27:18;;;;;;;11.10;4.67;;;;;;;;;;5051808;28;20286;-64
2022/01/22 14:29:45;;;;;;;10.13;5.70;;;;;;;;;;5057661;28;20261;-63
2022/01/22 14:32:18;;;;;;;8.97;5.00;;;;;;;;;;5068646;28;21347;-63
2022/01/22 14:34:46;;;;;;;6.83;4.00;;;;;;;;;;5066234;28;20670;-63
2022/01/22 14:37:31;;;;;;;6.43;3.80;;;;;;;;;;5046805;28;20294;-63
2022/01/22 14:45:32;;;;;;;6.67;4.07;;;;;;;;;;5065028;28;20297;-63
2022/01/22 14:48:01;;;;;;;8.47;4.17;;;;;;;;;;5054817;28;20630;-63
2022/01/22 14:50:29;;;;;;;7.00;3.43;;;;;;;;;;5064998;28;20288;-63
2022/01/22 14:52:57;;;;;;;14.33;6.83;;;;;;;;;;5052250;28;20343;-63
2022/01/22 14:55:25;;;;;;;11.57;4.17;;;;;;;;;;5051112;28;21020;-63
2022/01/22 14:57:53;;;;;;;11.87;3.87;;;;;;;;;;5069156;28;20273;-63
2022/01/22 15:00:21;;;;;;;10.77;5.53;;;;;;;;;;5071122;28;20327;-63
2022/01/22 15:02:49;;;;;;;6.83;4.03;;;;;;;;;;5070705;28;20272;-63
2022/01/22 15:05:16;;;;;;;5.77;3.23;;;;;;;;;;5071104;28;20250;-63
2022/01/22 15:07:46;;;;;;;4.70;3.20;;;;;;;;;;5055184;28;20297;-63
2022/01/22 15:10:20;;;;;;;7.17;3.70;;;;;;;;;;5055819;28;20285;-63
2022/01/22 15:12:47;;;;;;;5.93;3.00;;;;;;;;;;5058955;28;20284;-63
2022/01/22 15:15:18;;;;;;;6.27;3.20;;;;;;;;;;5065732;28;20265;-63
2022/01/22 15:20:17;;;;;;;5.20;3.10;;;;;;;;;;5070281;28;20068;-63
2022/01/22 15:22:48;;;;;;;4.43;2.60;;;;;;;;;;5063769;28;20467;-63
2022/01/22 15:25:15;;;;;;;11.23;2.97;;;;;;;;;;5050991;28;20078;-63
2022/01/22 15:27:43;;;;;;;4.40;3.00;;;;;;;;;;5073184;28;20033;-63
2022/01/22 15:30:21;;;;;;;3.70;2.20;;;;;;;;;;5075010;28;20095;-63
2022/01/22 15:32:57;;;;;;;5.17;2.37;;;;;;;;;;5066670;28;20025;-64
2022/01/22 15:35:25;;;;;;;6.10;2.30;;;;;;;;;;5055283;28;20521;-63
2022/01/22 15:37:57;;;;;;;4.17;2.00;;;;;;;;;;5053314;28;20120;-66
2022/01/22 15:40:28;;;;;;;2.90;1.87;;;;;;;;;;5050329;28;20113;-64
2022/01/22 15:42:54;;;;;;;4.73;1.87;;;;;;;;;;5052467;28;20369;-64
2022/01/22 15:45:26;;;;;;;3.87;2.10;;;;;;;;;;5055986;28;20021;-64
2022/01/22 15:47:53;;;;;;;3.50;1.90;;;;;;;;;;5068071;28;20031;-64
2022/01/22 15:50:22;;;;;;;6.43;2.83;;;;;;;;;;5059029;28;20467;-64
2022/01/22 15:52:50;;;;;;;4.37;1.87;;;;;;;;;;5066539;28;20051;-64
2022/01/22 15:55:17;;;;;;;3.63;2.03;;;;;;;;;;5054691;28;20031;-64
2022/01/22 15:57:44;;;;;;;4.07;2.30;;;;;;;;;;5054873;28;20033;-64
2022/01/22 16:00:16;;;;;;;4.47;2.30;;;;;;;;;;5052450;28;20037;-65
2022/01/22 16:02:45;;;;;;;3.77;2.20;;;;;;;;;;5049840;28;20029;-64
2022/01/22 16:05:13;;;;;;;5.43;2.10;;;;;;;;;;5048560;28;20496;-64
2022/01/22 16:07:45;;;;;;;11.90;3.07;;;;;;;;;;5049483;28;20029;-64
2022/01/22 16:10:16;;;;;;;5.17;3.10;;;;;;;;;;5063955;28;20032;-64
2022/01/22 16:12:48;;;;;;;5.37;2.50;;;;;;;;;;5073968;28;20033;-64
2022/01/22 16:15:15;;;;;;;3.97;2.03;;;;;;;;;;5068244;28;20068;-64
2022/01/22 16:17:45;;;;;;;4.73;2.03;;;;;;;;;;5054406;28;20055;-64
2022/01/22 16:20:16;;;;;;;3.63;2.27;;;;;;;;;;5072255;28;20081;-64
2022/01/22 16:22:43;;;;;;;5.27;2.80;;;;;;;;;;5071298;28;20479;-64
2022/01/22 16:25:11;;;;;;;4.57;2.20;;;;;;;;;;5069007;28;20890;-65
2022/01/22 16:27:40;;;;;;;4.60;2.10;;;;;;;;;;5050384;28;20115;-64
2022/01/22 16:30:07;;;;;;;5.43;2.03;;;;;;;;;;5049399;28;20434;-64
2022/01/22 16:32:34;;;;;;;4.80;2.70;;;;;;;;;;5051340;28;20071;-65
2022/01/22 16:35:00;;;;;;;6.27;1.90;;;;;;;;;;5054241;28;20566;-65
2022/01/22 16:37:28;;;;;;;4.13;2.70;;;;;;;;;;5054204;28;20032;-65
2022/01/22 16:39:56;;;;;;;4.20;2.30;;;;;;;;;;5060764;28;20562;-65
2022/01/22 16:42:26;;;;;;;5.60;2.57;;;;;;;;;;5073806;28;20483;-65
2022/01/22 16:58:03;;;;;;;4.20;2.80;;;;;;;;;;5053933;28;20457;-65
2022/01/22 17:00:35;;;;;;;4.47;2.33;;;;;;;;;;5053825;28;20028;-65
2022/01/22 17:03:07;;;;;;;3.47;1.97;;;;;;;;;;5053841;28;20100;-65
2022/01/22 17:05:38;;;;;;;5.17;2.60;;;;;;;;;;5058773;28;20379;-66